createdAt,value
2024-05-09T00:01:23.990Z,25.79
2024-05-09T00:02:24.128Z,25.80
2024-05-09T00:03:24.029Z,25.80
2024-05-09T00:04:24.070Z,25.78
2024-05-09T00:05:24.113Z,25.79
2024-05-09T00:06:24.073Z,25.79
2024-05-09T00:07:24.126Z,25.79
2024-05-09T00:08:24.257Z,25.78
2024-05-09T00:09:24.241Z,25.79
2024-05-09T00:10:29.328Z,25.79
2024-05-09T00:11:25.393Z,25.79
2024-05-09T00:12:24.383Z,25.79
2024-05-09T00:13:24.342Z,25.78
2024-05-09T00:14:24.396Z,25.79
2024-05-09T00:15:24.359Z,25.76
2024-05-09T00:16:24.458Z,25.79
2024-05-09T00:17:24.592Z,25.79
2024-05-09T00:18:24.600Z,25.80
2024-05-09T00:19:24.474Z,25.79
2024-05-09T00:20:32.320Z,25.79
2024-05-09T00:21:25.456Z,25.79
2024-05-09T00:22:24.459Z,25.79
2024-05-09T00:23:24.517Z,25.79
2024-05-09T00:24:24.479Z,25.79
2024-05-09T00:25:24.487Z,25.79
2024-05-09T00:26:24.581Z,25.79
2024-05-09T00:27:24.495Z,25.78
2024-05-09T00:28:24.509Z,25.78
2024-05-09T00:29:24.653Z,25.79
2024-05-09T00:30:33.139Z,25.78
2024-05-09T00:31:25.549Z,25.76
2024-05-09T00:32:24.684Z,25.78
2024-05-09T00:33:24.818Z,25.76
2024-05-09T00:34:24.805Z,25.78
2024-05-09T00:35:24.758Z,25.78
2024-05-09T00:36:24.643Z,25.78
2024-05-09T00:37:24.635Z,25.78
2024-05-09T00:38:24.758Z,25.76
2024-05-09T00:39:24.644Z,25.75
2024-05-09T00:40:31.228Z,25.78
2024-05-09T00:41:25.737Z,25.76
2024-05-09T00:42:24.690Z,25.78
2024-05-09T00:43:24.708Z,25.78
2024-05-09T00:44:24.854Z,25.78
2024-05-09T00:45:24.746Z,25.79
2024-05-09T00:46:24.749Z,25.76
2024-05-09T00:47:24.998Z,25.78
2024-05-09T00:48:24.886Z,25.78
2024-05-09T00:49:24.917Z,25.79
2024-05-09T00:50:30.025Z,25.78
2024-05-09T00:51:25.825Z,25.76
2024-05-09T00:52:24.805Z,25.76
2024-05-09T00:53:24.871Z,25.76
2024-05-09T00:54:24.803Z,25.76
2024-05-09T00:55:24.810Z,25.78
2024-05-09T00:56:24.935Z,25.78
2024-05-09T00:57:24.849Z,25.76
2024-05-09T00:58:24.865Z,25.76
2024-05-09T00:59:25.065Z,25.78
2024-05-09T01:00:31.330Z,25.75
2024-05-09T01:01:25.960Z,25.76
2024-05-09T01:02:25.057Z,25.75
2024-05-09T01:03:25.111Z,25.75
2024-05-09T01:04:25.010Z,25.75
2024-05-09T01:05:25.034Z,25.76
2024-05-09T01:06:25.006Z,25.76
2024-05-09T01:07:25.057Z,25.76
2024-05-09T01:08:25.084Z,25.73
2024-05-09T01:09:25.067Z,25.76
2024-05-09T01:10:32.279Z,25.75
2024-05-09T01:11:26.174Z,25.72
2024-05-09T01:12:25.298Z,25.76
2024-05-09T01:13:25.158Z,25.76
2024-05-09T01:14:25.228Z,25.76
2024-05-09T01:15:25.143Z,25.75
2024-05-09T01:16:25.171Z,25.73
2024-05-09T01:17:25.283Z,25.76
2024-05-09T01:18:25.303Z,25.78
2024-05-09T01:19:25.371Z,25.73
2024-05-09T01:20:32.159Z,25.76
2024-05-09T01:21:26.315Z,25.72
2024-05-09T01:22:25.260Z,25.73
2024-05-09T01:23:25.301Z,25.75
2024-05-09T01:24:25.254Z,25.75
2024-05-09T01:25:25.269Z,25.76
2024-05-09T01:26:25.319Z,25.73
2024-05-09T01:27:25.290Z,25.75
2024-05-09T01:28:25.304Z,25.76
2024-05-09T01:29:25.416Z,25.75
2024-05-09T01:30:33.340Z,25.75
2024-05-09T01:31:26.460Z,25.75
2024-05-09T01:32:25.605Z,25.72
2024-05-09T01:33:25.539Z,25.73
2024-05-09T01:34:25.394Z,25.75
2024-05-09T01:35:25.588Z,25.73
2024-05-09T01:36:25.429Z,25.72
2024-05-09T01:37:25.458Z,25.75
2024-05-09T01:38:25.474Z,25.73
2024-05-09T01:39:25.454Z,25.73
2024-05-09T01:40:35.413Z,25.76
2024-05-09T01:41:26.578Z,25.73
2024-05-09T01:42:25.494Z,25.72
2024-05-09T01:43:25.517Z,25.72
2024-05-09T01:44:25.564Z,25.76
2024-05-09T01:45:25.563Z,25.75
2024-05-09T01:46:25.565Z,25.75
2024-05-09T01:47:25.753Z,25.72
2024-05-09T01:48:25.675Z,25.72
2024-05-09T01:49:25.722Z,25.72
2024-05-09T01:50:36.999Z,25.73
2024-05-09T01:51:26.652Z,25.72
2024-05-09T01:52:25.665Z,25.75
2024-05-09T01:53:25.740Z,25.73
2024-05-09T01:54:25.689Z,25.71
2024-05-09T01:55:25.703Z,25.72
2024-05-09T01:56:25.776Z,25.72
2024-05-09T01:57:25.731Z,25.72
2024-05-09T01:58:25.744Z,25.72
2024-05-09T01:59:25.950Z,25.72
2024-05-09T02:00:36.335Z,25.72
2024-05-09T02:01:26.950Z,25.73
2024-05-09T02:02:25.909Z,25.75
2024-05-09T02:03:25.948Z,25.72
2024-05-09T02:04:25.994Z,25.72
2024-05-09T02:05:25.947Z,25.71
2024-05-09T02:06:25.900Z,25.73
2024-05-09T02:07:25.909Z,25.72
2024-05-09T02:08:26.014Z,25.72
2024-05-09T02:09:25.945Z,25.72
2024-05-09T02:10:31.972Z,25.72
2024-05-09T02:11:27.098Z,25.72
2024-05-09T02:12:26.091Z,25.72
2024-05-09T02:13:26.017Z,25.72
2024-05-09T02:14:26.185Z,25.73
2024-05-09T02:15:26.044Z,25.73
2024-05-09T02:16:26.058Z,25.72
2024-05-09T02:17:26.247Z,25.73
2024-05-09T02:18:26.185Z,25.71
2024-05-09T02:19:26.144Z,25.73
2024-05-09T02:20:33.431Z,25.72
2024-05-09T02:21:27.127Z,25.71
2024-05-09T02:22:26.143Z,25.72
2024-05-09T02:23:26.205Z,25.71
2024-05-09T02:24:26.160Z,25.72
2024-05-09T02:25:26.166Z,25.73
2024-05-09T02:26:26.241Z,25.75
2024-05-09T02:27:26.212Z,25.72
2024-05-09T02:28:26.201Z,25.73
2024-05-09T02:29:26.316Z,25.75
2024-05-09T02:30:35.926Z,25.72
2024-05-09T02:31:27.240Z,25.73
2024-05-09T02:32:26.391Z,25.71
2024-05-09T02:33:26.497Z,25.72
2024-05-09T02:34:26.393Z,25.71
2024-05-09T02:35:26.473Z,25.71
2024-05-09T02:36:26.311Z,25.72
2024-05-09T02:37:26.319Z,25.73
2024-05-09T02:38:26.386Z,25.69
2024-05-09T02:39:26.352Z,25.72
2024-05-09T02:40:35.069Z,25.69
2024-05-09T02:41:27.458Z,25.68
2024-05-09T02:42:26.377Z,25.72
2024-05-09T02:43:26.399Z,25.68
2024-05-09T02:44:26.503Z,25.72
2024-05-09T02:45:26.415Z,25.71
2024-05-09T02:46:26.432Z,25.68
2024-05-09T02:47:26.576Z,25.72
2024-05-09T02:48:26.645Z,25.69
2024-05-09T02:49:26.633Z,25.71
2024-05-09T02:50:34.137Z,25.71
2024-05-09T02:51:27.493Z,25.71
2024-05-09T02:52:26.515Z,25.72
2024-05-09T02:53:26.573Z,25.72
2024-05-09T02:54:26.543Z,25.69
2024-05-09T02:55:26.566Z,25.69
2024-05-09T02:56:26.636Z,25.71
2024-05-09T02:57:26.585Z,25.69
2024-05-09T02:58:26.615Z,25.73
2024-05-09T02:59:26.684Z,25.69
2024-05-09T03:00:34.994Z,25.72
2024-05-09T03:01:27.706Z,25.72
2024-05-09T03:02:26.753Z,25.69
2024-05-09T03:03:27.138Z,25.71
2024-05-09T03:04:26.720Z,25.69
2024-05-09T03:05:26.732Z,25.71
2024-05-09T03:06:26.704Z,25.71
2024-05-09T03:07:26.714Z,25.69
2024-05-09T03:08:26.780Z,25.69
2024-05-09T03:09:26.747Z,25.69
2024-05-09T03:10:29.040Z,25.72
2024-05-09T03:11:27.897Z,25.69
2024-05-09T03:12:26.859Z,25.68
2024-05-09T03:13:26.809Z,25.71
2024-05-09T03:14:27.007Z,25.69
2024-05-09T03:15:26.839Z,25.71
2024-05-09T03:16:26.863Z,25.71
2024-05-09T03:17:27.031Z,25.71
2024-05-09T03:18:26.966Z,25.68
2024-05-09T03:19:26.947Z,25.69
2024-05-09T03:20:32.637Z,25.68
2024-05-09T03:21:27.931Z,25.68
2024-05-09T03:22:26.939Z,25.69
2024-05-09T03:23:26.986Z,25.68
2024-05-09T03:24:26.967Z,25.68
2024-05-09T03:25:26.985Z,25.68
2024-05-09T03:26:27.038Z,25.69
2024-05-09T03:27:27.027Z,25.69
2024-05-09T03:28:27.029Z,25.69
2024-05-09T03:29:27.190Z,25.66
2024-05-09T03:30:35.783Z,25.68
2024-05-09T03:31:28.127Z,25.71
2024-05-09T03:32:27.168Z,25.68
2024-05-09T03:33:27.359Z,25.68
2024-05-09T03:34:27.139Z,25.68
2024-05-09T03:35:27.221Z,25.66
2024-05-09T03:36:27.130Z,25.71
2024-05-09T03:37:27.125Z,25.65
2024-05-09T03:38:27.164Z,25.69
2024-05-09T03:39:27.141Z,25.68
2024-05-09T03:40:30.816Z,25.69
2024-05-09T03:41:27.185Z,25.69
2024-05-09T03:42:27.186Z,25.65
2024-05-09T03:43:27.189Z,25.69
2024-05-09T03:44:27.242Z,25.66
2024-05-09T03:45:27.222Z,25.69
2024-05-09T03:46:27.240Z,25.69
2024-05-09T03:47:27.340Z,25.66
2024-05-09T03:48:27.399Z,25.66
2024-05-09T03:49:27.377Z,25.66
2024-05-09T03:50:33.692Z,25.69
2024-05-09T03:51:28.291Z,25.68
2024-05-09T03:52:27.297Z,25.66
2024-05-09T03:53:27.350Z,25.66
2024-05-09T03:54:27.335Z,25.68
2024-05-09T03:55:27.362Z,25.68
2024-05-09T03:56:27.413Z,25.69
2024-05-09T03:57:27.383Z,25.69
2024-05-09T03:58:27.389Z,25.66
2024-05-09T03:59:27.490Z,25.68
2024-05-09T04:00:35.201Z,25.68
2024-05-09T04:01:28.480Z,25.66
2024-05-09T04:02:27.585Z,25.66
2024-05-09T04:03:27.768Z,25.66
2024-05-09T04:04:27.516Z,25.66
2024-05-09T04:05:27.579Z,25.68
2024-05-09T04:06:27.486Z,25.65
2024-05-09T04:07:27.518Z,25.66
2024-05-09T04:08:27.635Z,25.66
2024-05-09T04:09:27.519Z,25.66
2024-05-09T04:10:32.757Z,25.68
2024-05-09T04:11:28.644Z,25.65
2024-05-09T04:12:27.603Z,25.68
2024-05-09T04:13:27.570Z,25.64
2024-05-09T04:14:27.766Z,25.68
2024-05-09T04:15:27.622Z,25.66
2024-05-09T04:16:27.625Z,25.68
2024-05-09T04:17:27.850Z,25.65
2024-05-09T04:18:27.774Z,25.65
2024-05-09T04:19:27.831Z,25.68
2024-05-09T04:20:36.642Z,25.65
2024-05-09T04:21:28.687Z,25.66
2024-05-09T04:22:27.709Z,25.65
2024-05-09T04:23:27.834Z,25.66
2024-05-09T04:24:27.743Z,25.66
2024-05-09T04:25:27.750Z,25.65
2024-05-09T04:26:27.811Z,25.64
2024-05-09T04:27:27.777Z,25.65
2024-05-09T04:28:27.782Z,25.66
2024-05-09T04:29:27.858Z,25.66
2024-05-09T04:30:34.995Z,25.65
2024-05-09T04:31:28.842Z,25.66
2024-05-09T04:32:27.998Z,25.65
2024-05-09T04:33:28.004Z,25.66
2024-05-09T04:34:27.963Z,25.65
2024-05-09T04:35:35.252Z,25.65
2024-05-09T04:36:35.172Z,25.64
2024-05-09T04:37:35.181Z,25.66
2024-05-09T04:38:35.261Z,25.66
2024-05-09T04:39:35.187Z,25.68
2024-05-09T04:40:37.015Z,25.66
2024-05-09T04:41:35.368Z,25.65
2024-05-09T04:42:35.382Z,25.65
2024-05-09T04:43:35.423Z,25.68
2024-05-09T04:44:35.500Z,25.68
2024-05-09T04:45:35.876Z,25.65
2024-05-09T04:46:35.530Z,25.68
2024-05-09T04:47:35.857Z,25.68
2024-05-09T04:48:35.728Z,25.65
2024-05-09T04:49:35.850Z,25.65
2024-05-09T04:50:38.644Z,25.65
2024-05-09T04:51:35.767Z,25.66
2024-05-09T04:52:35.771Z,25.66
2024-05-09T04:53:35.807Z,25.68
2024-05-09T04:54:36.718Z,25.69
2024-05-09T04:55:35.773Z,25.65
2024-05-09T04:56:35.813Z,25.68
2024-05-09T04:57:35.748Z,25.66
2024-05-09T04:58:35.744Z,25.65
2024-05-09T04:59:35.815Z,25.69
2024-05-09T05:00:37.901Z,25.68
2024-05-09T05:01:35.790Z,25.66
2024-05-09T05:02:35.785Z,25.68
2024-05-09T05:03:35.890Z,25.71
2024-05-09T05:04:35.751Z,25.68
2024-05-09T05:05:35.742Z,25.68
2024-05-09T05:06:35.729Z,25.65
2024-05-09T05:07:35.716Z,25.69
2024-05-09T05:08:35.751Z,25.68
2024-05-09T05:09:35.710Z,25.69
2024-05-09T05:10:36.891Z,25.71
2024-05-09T05:11:35.730Z,25.68
2024-05-09T05:12:35.697Z,25.66
2024-05-09T05:13:38.630Z,25.68
2024-05-09T05:14:35.707Z,25.68
2024-05-09T05:15:35.655Z,25.68
2024-05-09T05:16:35.633Z,25.68
2024-05-09T05:17:35.830Z,25.68
2024-05-09T05:18:35.703Z,25.69
2024-05-09T05:19:35.802Z,25.71
2024-05-09T05:20:35.719Z,25.69
2024-05-09T05:21:35.614Z,25.69
2024-05-09T05:22:35.822Z,25.66
2024-05-09T05:23:35.726Z,25.65
2024-05-09T05:24:35.609Z,25.69
2024-05-09T05:25:35.575Z,25.69
2024-05-09T05:26:35.595Z,25.69
2024-05-09T05:27:35.567Z,25.69
2024-05-09T05:28:35.559Z,25.69
2024-05-09T05:29:35.720Z,25.68
2024-05-09T05:30:35.845Z,25.69
2024-05-09T05:31:35.708Z,25.69
2024-05-09T05:32:35.848Z,25.69
2024-05-09T05:33:35.810Z,25.68
2024-05-09T05:34:35.807Z,25.71
2024-05-09T05:35:35.904Z,25.72
2024-05-09T05:36:35.912Z,25.69
2024-05-09T05:37:35.969Z,25.69
2024-05-09T05:38:36.044Z,25.71
2024-05-09T05:39:36.092Z,25.71
2024-05-09T05:40:38.155Z,25.69
2024-05-09T05:41:36.179Z,25.71
2024-05-09T05:42:36.128Z,25.71
2024-05-09T05:43:36.119Z,25.71
2024-05-09T05:44:36.135Z,25.69
2024-05-09T05:45:36.081Z,25.71
2024-05-09T05:46:36.073Z,25.69
2024-05-09T05:47:36.123Z,25.71
2024-05-09T05:48:36.120Z,25.71
2024-05-09T05:49:36.077Z,25.71
2024-05-09T05:50:37.965Z,25.73
2024-05-09T05:51:36.013Z,25.71
2024-05-09T05:52:35.997Z,25.71
2024-05-09T05:53:36.065Z,25.72
2024-05-09T05:54:35.983Z,25.72
2024-05-09T05:55:35.975Z,25.72
2024-05-09T05:56:36.025Z,25.72
2024-05-09T05:57:35.977Z,25.72
2024-05-09T05:58:35.974Z,25.73
2024-05-09T05:59:36.042Z,25.75
2024-05-09T06:00:39.037Z,25.71
2024-05-09T06:01:36.080Z,25.73
2024-05-09T06:02:36.049Z,25.75
2024-05-09T06:03:36.051Z,25.72
2024-05-09T06:04:35.987Z,25.75
2024-05-09T06:05:36.046Z,25.75
2024-05-09T06:06:35.961Z,25.75
2024-05-09T06:07:35.956Z,25.75
2024-05-09T06:08:35.981Z,25.73
2024-05-09T06:09:35.962Z,25.75
2024-05-09T06:10:39.277Z,25.76
2024-05-09T06:11:36.141Z,25.73
2024-05-09T06:12:35.941Z,25.75
2024-05-09T06:13:35.940Z,25.76
2024-05-09T06:14:35.995Z,25.75
2024-05-09T06:15:35.939Z,25.75
2024-05-09T06:16:35.950Z,25.75
2024-05-09T06:17:36.132Z,25.76
2024-05-09T06:18:36.345Z,25.78
2024-05-09T06:19:36.034Z,25.78
2024-05-09T06:20:38.009Z,25.76
2024-05-09T06:21:36.150Z,25.75
2024-05-09T06:22:36.186Z,25.76
2024-05-09T06:23:36.427Z,25.75
2024-05-09T06:24:36.279Z,25.78
2024-05-09T06:25:36.627Z,25.76
2024-05-09T06:26:36.420Z,25.78
2024-05-09T06:27:36.444Z,25.78
2024-05-09T06:28:36.503Z,25.80
2024-05-09T06:29:36.558Z,25.79
2024-05-09T06:30:39.801Z,25.82
2024-05-09T06:31:37.612Z,25.82
2024-05-09T06:32:36.701Z,25.79
2024-05-09T06:33:36.999Z,25.80
2024-05-09T06:34:36.658Z,25.80
2024-05-09T06:35:37.078Z,25.82
2024-05-09T06:36:36.592Z,25.85
2024-05-09T06:37:36.598Z,25.83
2024-05-09T06:38:36.658Z,25.82
2024-05-09T06:39:36.566Z,25.83
2024-05-09T06:40:39.172Z,25.85
2024-05-09T06:41:36.616Z,25.83
2024-05-09T06:42:36.555Z,25.86
2024-05-09T06:43:36.561Z,25.86
2024-05-09T06:44:36.598Z,25.83
2024-05-09T06:45:36.552Z,25.85
2024-05-09T06:46:36.555Z,25.85
2024-05-09T06:47:36.696Z,25.85
2024-05-09T06:48:36.637Z,25.86
2024-05-09T06:49:36.545Z,25.83
2024-05-09T06:50:38.343Z,25.85
2024-05-09T06:51:36.512Z,25.85
2024-05-09T06:52:36.507Z,25.86
2024-05-09T06:53:36.608Z,25.85
2024-05-09T06:54:36.507Z,25.88
2024-05-09T06:55:36.518Z,25.86
2024-05-09T06:56:36.515Z,25.88
2024-05-09T06:57:37.751Z,25.88
2024-05-09T06:58:36.660Z,25.88
2024-05-09T06:59:36.712Z,25.88
2024-05-09T07:00:39.674Z,25.89
2024-05-09T07:01:36.747Z,25.90
2024-05-09T07:02:36.773Z,25.89
2024-05-09T07:03:36.738Z,25.88
2024-05-09T07:04:36.796Z,25.88
2024-05-09T07:05:36.702Z,25.90
2024-05-09T07:06:36.672Z,25.89
2024-05-09T07:07:36.660Z,25.89
2024-05-09T07:08:36.750Z,25.90
2024-05-09T07:09:36.664Z,25.90
2024-05-09T07:10:37.206Z,25.90
2024-05-09T07:11:36.673Z,25.92
2024-05-09T07:12:36.618Z,25.90
2024-05-09T07:13:36.618Z,25.95
2024-05-09T07:14:38.444Z,25.93
2024-05-09T07:15:36.613Z,25.96
2024-05-09T07:16:36.595Z,25.97
2024-05-09T07:17:36.731Z,25.97
2024-05-09T07:18:36.898Z,25.97
2024-05-09T07:19:36.883Z,25.97
2024-05-09T07:20:36.750Z,25.99
2024-05-09T07:21:36.774Z,26.00
2024-05-09T07:22:36.784Z,26.03
2024-05-09T07:23:37.587Z,26.04
2024-05-09T07:24:36.861Z,26.03
2024-05-09T07:25:36.955Z,26.04
2024-05-09T07:26:37.063Z,26.03
2024-05-09T07:27:36.991Z,26.03
2024-05-09T07:28:37.023Z,26.01
2024-05-09T07:29:38.714Z,26.04
2024-05-09T07:30:37.093Z,26.01
2024-05-09T07:31:37.137Z,26.04
2024-05-09T07:32:37.284Z,26.03
2024-05-09T07:33:37.289Z,26.04
2024-05-09T07:34:37.281Z,26.03
2024-05-09T07:35:37.533Z,26.07
2024-05-09T07:36:37.322Z,26.06
2024-05-09T07:37:37.377Z,26.07
2024-05-09T07:38:37.673Z,26.10
2024-05-09T07:39:37.428Z,26.12
2024-05-09T07:40:37.451Z,26.19
2024-05-09T07:41:37.688Z,26.31
2024-05-09T07:42:37.520Z,26.37
2024-05-09T07:43:37.526Z,26.35
2024-05-09T07:44:37.633Z,26.35
2024-05-09T07:45:48.364Z,26.44
2024-05-09T07:47:47.335Z,26.54
2024-05-09T07:48:58.083Z,26.63
2024-05-09T07:53:33.818Z,26.91
2024-05-09T07:53:43.861Z,26.86
2024-05-09T07:54:38.573Z,26.82
2024-05-09T07:55:37.558Z,26.82
2024-05-09T07:56:37.504Z,26.83
2024-05-09T07:57:37.358Z,26.76
2024-05-09T07:58:37.292Z,26.72
2024-05-09T07:59:38.001Z,26.72
2024-05-09T08:00:37.358Z,26.69
2024-05-09T08:01:37.421Z,26.68
2024-05-09T08:02:37.271Z,26.68
2024-05-09T08:03:37.374Z,26.65
2024-05-09T08:04:37.245Z,26.66
2024-05-09T08:05:37.230Z,26.63
2024-05-09T08:06:37.136Z,26.62
2024-05-09T08:07:37.094Z,26.60
2024-05-09T08:08:37.088Z,26.62
2024-05-09T08:09:38.409Z,26.60
2024-05-09T08:10:37.113Z,26.58
2024-05-09T08:11:37.064Z,26.59
2024-05-09T08:12:37.038Z,26.59
2024-05-09T08:13:37.054Z,26.56
2024-05-09T08:14:36.983Z,26.54
2024-05-09T08:15:37.031Z,26.51
2024-05-09T08:16:36.970Z,26.55
2024-05-09T08:17:37.076Z,26.58
2024-05-09T08:18:37.139Z,26.66
2024-05-09T08:19:36.959Z,26.76
2024-05-09T08:20:36.907Z,26.83
2024-05-09T08:21:36.912Z,26.76
2024-05-09T08:22:36.863Z,26.85
2024-05-09T08:23:36.875Z,26.83
2024-05-09T08:24:36.871Z,26.87
2024-05-09T08:25:36.803Z,26.96
2024-05-09T08:26:36.790Z,26.99
2024-05-09T08:27:36.788Z,27.01
2024-05-09T08:28:36.737Z,26.99
2024-05-09T08:29:36.704Z,26.99
2024-05-09T08:30:38.107Z,26.99
2024-05-09T08:31:36.681Z,26.94
2024-05-09T08:32:36.815Z,26.97
2024-05-09T08:33:37.056Z,26.96
2024-05-09T08:34:36.618Z,26.96
2024-05-09T08:35:36.568Z,26.93
2024-05-09T08:36:36.576Z,26.93
2024-05-09T08:37:38.929Z,26.91
2024-05-09T08:38:36.491Z,26.93
2024-05-09T08:39:36.491Z,26.89
2024-05-09T08:40:37.876Z,26.89
2024-05-09T08:41:36.435Z,26.90
2024-05-09T08:42:36.445Z,26.93
2024-05-09T08:43:38.218Z,26.94
2024-05-09T08:44:36.386Z,26.91
2024-05-09T08:45:36.393Z,27.00
2024-05-09T08:46:36.383Z,27.00
2024-05-09T08:47:36.377Z,27.03
2024-05-09T08:48:36.502Z,27.07
2024-05-09T08:49:37.663Z,27.08
2024-05-09T08:50:39.112Z,27.11
2024-05-09T08:51:36.342Z,27.14
2024-05-09T08:52:36.238Z,27.15
2024-05-09T08:53:36.257Z,27.14
2024-05-09T08:54:36.230Z,27.13
2024-05-09T08:55:38.142Z,27.13
2024-05-09T08:56:36.895Z,27.14
2024-05-09T08:57:36.187Z,27.18
2024-05-09T08:58:36.111Z,27.10
2024-05-09T08:59:36.099Z,27.13
2024-05-09T09:00:37.594Z,27.08
2024-05-09T09:01:37.779Z,27.11
2024-05-09T09:02:36.194Z,27.07
2024-05-09T09:03:36.345Z,27.07
2024-05-09T09:04:36.098Z,27.13
2024-05-09T09:05:36.065Z,27.13
2024-05-09T09:06:36.025Z,27.11
2024-05-09T09:07:35.989Z,27.13
2024-05-09T09:08:35.956Z,27.15
2024-05-09T09:09:35.958Z,27.11
2024-05-09T09:10:36.107Z,27.14
2024-05-09T09:11:35.941Z,27.14
2024-05-09T09:12:35.919Z,27.13
2024-05-09T09:13:35.861Z,27.17
2024-05-09T09:14:35.839Z,27.13
2024-05-09T09:15:35.868Z,27.14
2024-05-09T09:16:35.804Z,27.13
2024-05-09T09:17:35.839Z,27.14
2024-05-09T09:18:36.032Z,27.14
2024-05-09T09:19:35.846Z,27.15
2024-05-09T09:20:37.056Z,27.15
2024-05-09T09:21:35.764Z,27.14
2024-05-09T09:22:35.659Z,27.13
2024-05-09T09:23:35.640Z,27.13
2024-05-09T09:24:35.645Z,27.14
2024-05-09T09:25:35.614Z,27.15
2024-05-09T09:26:35.595Z,27.13
2024-05-09T09:27:35.605Z,27.15
2024-05-09T09:28:35.556Z,27.15
2024-05-09T09:29:35.531Z,27.15
2024-05-09T09:30:37.945Z,27.18
2024-05-09T09:31:35.581Z,27.15
2024-05-09T09:32:35.504Z,27.14
2024-05-09T09:33:36.025Z,27.15
2024-05-09T09:34:35.462Z,27.18
2024-05-09T09:35:35.387Z,27.18
2024-05-09T09:36:35.397Z,27.15
2024-05-09T09:37:35.346Z,27.20
2024-05-09T09:38:35.326Z,27.18
2024-05-09T09:39:35.381Z,27.18
2024-05-09T09:40:38.714Z,27.17
2024-05-09T09:41:36.272Z,27.20
2024-05-09T09:42:35.270Z,27.21
2024-05-09T09:43:35.219Z,27.21
2024-05-09T09:44:37.360Z,27.18
2024-05-09T09:45:35.181Z,27.20
2024-05-09T09:46:35.187Z,27.23
2024-05-09T09:47:35.256Z,27.20
2024-05-09T09:48:35.251Z,27.23
2024-05-09T09:49:35.084Z,27.21
2024-05-09T09:50:35.431Z,27.20
2024-05-09T09:51:34.984Z,27.24
2024-05-09T09:52:34.961Z,27.21
2024-05-09T09:53:34.946Z,27.20
2024-05-09T09:54:34.982Z,27.23
2024-05-09T09:55:34.909Z,27.20
2024-05-09T09:56:34.898Z,27.21
2024-05-09T09:57:34.906Z,27.23
2024-05-09T09:58:34.906Z,27.23
2024-05-09T09:59:34.814Z,27.23
2024-05-09T10:00:34.832Z,27.21
2024-05-09T10:01:34.906Z,27.20
2024-05-09T10:02:34.771Z,27.24
2024-05-09T10:03:34.904Z,27.21
2024-05-09T10:04:34.774Z,27.23
2024-05-09T10:05:34.880Z,27.21
2024-05-09T10:06:34.704Z,27.23
2024-05-09T10:07:34.633Z,27.23
2024-05-09T10:08:34.626Z,27.24
2024-05-09T10:09:35.441Z,27.21
2024-05-09T10:10:34.925Z,27.27
2024-05-09T10:11:41.879Z,27.24
2024-05-09T10:12:35.912Z,27.27
2024-05-09T10:13:34.959Z,27.27
2024-05-09T10:14:34.709Z,27.24
2024-05-09T10:15:34.744Z,27.25
2024-05-09T10:16:34.703Z,27.24
2024-05-09T10:17:34.806Z,27.25
2024-05-09T10:18:34.819Z,27.27
2024-05-09T10:19:34.725Z,27.28
2024-05-09T10:20:34.710Z,27.28
2024-05-09T10:21:34.770Z,27.27
2024-05-09T10:22:34.770Z,27.28
2024-05-09T10:23:34.856Z,27.31
2024-05-09T10:24:34.872Z,27.28
2024-05-09T10:25:34.904Z,27.28
2024-05-09T10:26:34.918Z,27.28
2024-05-09T10:27:35.005Z,27.30
2024-05-09T10:28:35.058Z,27.30
2024-05-09T10:29:35.049Z,27.28
2024-05-09T10:30:36.371Z,27.31
2024-05-09T10:31:35.165Z,27.31
2024-05-09T10:32:35.214Z,27.30
2024-05-09T10:33:35.390Z,27.30
2024-05-09T10:34:35.362Z,27.30
2024-05-09T10:35:35.268Z,27.31
2024-05-09T10:36:35.330Z,27.30
2024-05-09T10:37:35.403Z,27.31
2024-05-09T10:38:35.397Z,27.32
2024-05-09T10:39:35.454Z,27.32
2024-05-09T10:40:35.491Z,27.32
2024-05-09T10:41:35.527Z,27.32
2024-05-09T10:42:35.569Z,27.32
2024-05-09T10:43:35.623Z,27.32
2024-05-09T10:44:35.650Z,27.34
2024-05-09T10:45:35.732Z,27.32
2024-05-09T10:46:35.710Z,27.34
2024-05-09T10:47:35.827Z,27.34
2024-05-09T10:48:35.869Z,27.37
2024-05-09T10:49:35.826Z,27.34
2024-05-09T10:50:35.914Z,27.31
2024-05-09T10:51:35.938Z,27.34
2024-05-09T10:52:35.932Z,27.34
2024-05-09T10:53:35.982Z,27.35
2024-05-09T10:54:36.032Z,27.35
2024-05-09T10:55:36.023Z,27.35
2024-05-09T10:56:36.031Z,27.34
2024-05-09T10:57:36.061Z,27.34
2024-05-09T10:58:36.075Z,27.34
2024-05-09T10:59:36.085Z,27.31
2024-05-09T11:00:36.803Z,27.31
2024-05-09T11:01:36.216Z,27.30
2024-05-09T11:02:36.274Z,27.34
2024-05-09T11:03:36.566Z,27.31
2024-05-09T11:04:36.266Z,27.31
2024-05-09T11:05:36.491Z,27.31
2024-05-09T11:06:36.314Z,27.28
2024-05-09T11:07:36.258Z,27.31
2024-05-09T11:08:36.297Z,27.30
2024-05-09T11:09:36.354Z,27.30
2024-05-09T11:10:36.411Z,27.30
2024-05-09T11:11:36.455Z,27.30
2024-05-09T11:12:36.505Z,27.28
2024-05-09T11:13:36.590Z,27.27
2024-05-09T11:14:36.603Z,27.27
2024-05-09T11:15:36.655Z,27.27
2024-05-09T11:16:36.667Z,27.25
2024-05-09T11:17:36.808Z,27.24
2024-05-09T11:18:39.036Z,27.24
2024-05-09T11:19:36.855Z,27.25
2024-05-09T11:20:37.047Z,27.25
2024-05-09T11:21:36.755Z,27.23
2024-05-09T11:22:36.761Z,27.21
2024-05-09T11:23:36.725Z,27.23
2024-05-09T11:24:36.721Z,27.21
2024-05-09T11:25:36.675Z,27.21
2024-05-09T11:26:36.655Z,27.23
2024-05-09T11:27:36.670Z,27.20
2024-05-09T11:28:36.639Z,27.21
2024-05-09T11:29:36.615Z,27.21
2024-05-09T11:30:36.630Z,27.20
2024-05-09T11:31:36.703Z,27.21
2024-05-09T11:32:36.667Z,27.18
2024-05-09T11:33:36.733Z,27.17
2024-05-09T11:34:36.567Z,27.15
2024-05-09T11:35:36.491Z,27.20
2024-05-09T11:36:36.516Z,27.15
2024-05-09T11:37:37.266Z,27.14
2024-05-09T11:38:36.453Z,27.14
2024-05-09T11:39:36.478Z,27.17
2024-05-09T11:40:36.501Z,27.15
2024-05-09T11:41:36.421Z,27.15
2024-05-09T11:42:36.417Z,27.13
2024-05-09T11:43:36.398Z,27.14
2024-05-09T11:44:36.389Z,27.14
2024-05-09T11:45:36.377Z,27.15
2024-05-09T11:46:36.344Z,27.15
2024-05-09T11:47:36.400Z,27.14
2024-05-09T11:48:36.446Z,27.13
2024-05-09T11:49:36.343Z,27.14
2024-05-09T11:50:36.507Z,27.14
2024-05-09T11:51:36.292Z,27.13
2024-05-09T11:52:36.249Z,27.11
2024-05-09T11:53:36.247Z,27.13
2024-05-09T11:54:36.266Z,27.13
2024-05-09T11:55:36.291Z,27.13
2024-05-09T11:56:36.175Z,27.11
2024-05-09T11:57:36.195Z,27.11
2024-05-09T11:58:36.142Z,27.13
2024-05-09T11:59:36.145Z,27.08
2024-05-09T12:00:37.516Z,27.11
2024-05-09T12:01:36.258Z,27.10
2024-05-09T12:02:36.195Z,27.10
2024-05-09T12:03:36.240Z,27.07
2024-05-09T12:04:36.303Z,27.10
2024-05-09T12:05:36.386Z,27.11
2024-05-09T12:06:36.321Z,27.10
2024-05-09T12:07:36.292Z,27.08
2024-05-09T12:08:36.360Z,27.06
2024-05-09T12:09:36.386Z,27.10
2024-05-09T12:10:37.113Z,27.10
2024-05-09T12:11:36.484Z,27.10
2024-05-09T12:12:37.419Z,27.10
2024-05-09T12:13:36.586Z,27.08
2024-05-09T12:14:36.562Z,27.08
2024-05-09T12:15:37.644Z,27.08
2024-05-09T12:16:36.723Z,27.08
2024-05-09T12:17:36.741Z,27.07
2024-05-09T12:18:36.723Z,27.07
2024-05-09T12:19:36.775Z,27.04
2024-05-09T12:20:39.381Z,27.08
2024-05-09T12:21:36.768Z,27.06
2024-05-09T12:22:36.716Z,27.06
2024-05-09T12:23:36.693Z,27.06
2024-05-09T12:24:36.719Z,27.07
2024-05-09T12:25:36.655Z,27.07
2024-05-09T12:26:36.637Z,27.04
2024-05-09T12:27:36.694Z,27.06
2024-05-09T12:28:36.619Z,27.07
2024-05-09T12:29:38.810Z,27.03
2024-05-09T12:30:39.662Z,27.06
2024-05-09T12:31:36.621Z,27.04
2024-05-09T12:32:36.631Z,27.08
2024-05-09T12:33:36.657Z,27.03
2024-05-09T12:34:36.611Z,27.01
2024-05-09T12:35:36.590Z,27.04
2024-05-09T12:36:36.551Z,27.03
2024-05-09T12:37:36.501Z,27.04
2024-05-09T12:38:36.487Z,27.04
2024-05-09T12:39:36.502Z,27.06
2024-05-09T12:40:38.547Z,27.04
2024-05-09T12:41:36.424Z,27.06
2024-05-09T12:42:36.450Z,27.03
2024-05-09T12:43:36.433Z,27.06
2024-05-09T12:44:36.365Z,27.04
2024-05-09T12:45:36.476Z,27.04
2024-05-09T12:46:36.347Z,27.04
2024-05-09T12:47:36.378Z,27.01
2024-05-09T12:48:36.522Z,27.04
2024-05-09T12:49:36.455Z,27.03
2024-05-09T12:50:36.903Z,27.01
2024-05-09T12:51:36.336Z,27.03
2024-05-09T12:52:36.245Z,27.04
2024-05-09T12:53:36.237Z,27.04
2024-05-09T12:54:36.259Z,27.01
2024-05-09T12:55:44.096Z,27.01
2024-05-09T12:56:37.204Z,27.04
2024-05-09T12:57:36.205Z,27.03